Time,TemperatureF,DewpointF,PressureIn,WindDirection,WindDirectionDegrees,WindSpeedMPH,WindSpeedGustMPH,Humidity,HourlyPrecipIn,Conditions,Clouds,dailyrainin,SoftwareType,DateUTC
2013-02-22 00:07:00,39.0,38.2,29.96,SE,135,0.0,-999.0,97,-99.99,,,0.04,Acu-Link.com,2013-02-22 05:07:00,
2013-02-22 00:22:00,39.2,38.4,29.96,WSW,247,1.6,-999.0,97,-99.99,,,0.06,Acu-Link.com,2013-02-22 05:22:00,
2013-02-22 00:37:00,39.0,38.2,29.95,West,270,0.0,-999.0,97,-99.99,,,0.15,Acu-Link.com,2013-02-22 05:37:00,
2013-02-22 00:53:00,39.0,38.2,29.97,WNW,292,0.0,-999.0,97,-99.99,,,0.19,Acu-Link.com,2013-02-22 05:53:00,
2013-02-22 01:08:00,39.0,38.2,29.96,West,270,1.1,-999.0,97,-99.99,,,0.24,Acu-Link.com,2013-02-22 06:08:00,
2013-02-22 01:23:00,39.0,38.2,29.97,West,270,4.7,-999.0,97,-99.99,,,0.27,Acu-Link.com,2013-02-22 06:23:00,
2013-02-22 01:38:00,39.0,38.0,29.94,SSW,202,2.2,-999.0,96,-99.99,,,0.32,Acu-Link.com,2013-02-22 06:38:00,
2013-02-22 01:54:00,39.2,37.6,29.93,West,270,1.6,-999.0,94,-99.99,,,0.35,Acu-Link.com,2013-02-22 06:54:00,
2013-02-22 02:09:00,38.8,37.5,29.91,West,270,3.8,-999.0,95,-99.99,,,0.37,Acu-Link.com,2013-02-22 07:09:00,
2013-02-22 02:24:00,38.8,37.8,29.92,West,270,2.7,-999.0,96,-99.99,,,0.38,Acu-Link.com,2013-02-22 07:24:00,
2013-02-22 02:39:00,38.7,37.6,29.94,SSE,157,1.1,-999.0,96,-99.99,,,0.48,Acu-Link.com,2013-02-22 07:39:00,
2013-02-22 02:54:00,38.5,37.4,29.90,West,270,2.7,-999.0,96,-99.99,,,0.54,Acu-Link.com,2013-02-22 07:54:00,
2013-02-22 03:10:00,38.3,37.3,29.91,WSW,247,2.2,-999.0,96,-99.99,,,0.54,Acu-Link.com,2013-02-22 08:10:00,
2013-02-22 03:25:00,38.3,37.3,29.91,SW,225,2.7,-999.0,96,-99.99,,,0.57,Acu-Link.com,2013-02-22 08:25:00,
2013-02-22 03:40:00,37.9,36.9,29.90,WSW,247,2.7,-999.0,96,-99.99,,,0.61,Acu-Link.com,2013-02-22 08:40:00,
2013-02-22 03:55:00,37.9,36.9,29.90,West,270,1.6,-999.0,96,-99.99,,,0.61,Acu-Link.com,2013-02-22 08:55:00,
2013-02-22 04:19:00,37.9,36.9,29.90,West,270,6.7,-999.0,96,-99.99,,,0.61,Acu-Link.com,2013-02-22 09:19:00,
2013-02-22 04:35:00,38.1,36.5,29.90,SSW,202,2.7,-999.0,94,-99.99,,,0.61,Acu-Link.com,2013-02-22 09:35:00,
2013-02-22 04:50:00,38.1,36.8,29.90,NE,45,4.3,-999.0,95,-99.99,,,0.63,Acu-Link.com,2013-02-22 09:50:00,
2013-02-22 05:05:00,38.1,36.8,29.91,North,0,1.1,-999.0,95,-99.99,,,0.63,Acu-Link.com,2013-02-22 10:05:00,
2013-02-22 05:20:00,37.9,36.6,29.92,SSW,202,3.8,-999.0,95,-99.99,,,0.66,Acu-Link.com,2013-02-22 10:20:00,
2013-02-22 05:35:00,37.4,36.4,29.93,West,270,2.2,-999.0,96,-99.99,,,0.66,Acu-Link.com,2013-02-22 10:35:00,
2013-02-22 05:50:00,37.2,36.2,29.93,WSW,247,2.2,-999.0,96,-99.99,,,0.67,Acu-Link.com,2013-02-22 10:50:00,
2013-02-22 06:06:00,37.2,36.4,29.93,SSW,202,2.2,-999.0,97,-99.99,,,0.67,Acu-Link.com,2013-02-22 11:06:00,
2013-02-22 06:21:00,37.0,36.3,29.93,West,270,0.0,-999.0,97,-99.99,,,0.67,Acu-Link.com,2013-02-22 11:21:00,
2013-02-22 06:36:00,37.0,36.3,29.92,West,270,0.0,-999.0,97,-99.99,,,0.67,Acu-Link.com,2013-02-22 11:36:00,
2013-02-22 06:51:00,37.0,36.3,29.91,WSW,247,2.2,-999.0,97,-99.99,,,0.67,Acu-Link.com,2013-02-22 11:51:00,
2013-02-22 07:06:00,37.0,36.0,29.92,West,270,4.3,-999.0,96,-99.99,,,0.67,Acu-Link.com,2013-02-22 12:06:00,
2013-02-22 07:22:00,37.0,36.0,29.91,West,270,0.0,-999.0,96,-99.99,,,0.67,Acu-Link.com,2013-02-22 12:22:00,
2013-02-22 07:37:00,36.9,36.1,29.92,ESE,112,1.1,-999.0,97,-99.99,,,0.67,Acu-Link.com,2013-02-22 12:37:00,
2013-02-22 07:52:00,37.0,36.0,29.93,West,270,3.1,-999.0,96,-99.99,,,0.67,Acu-Link.com,2013-02-22 12:52:00,
2013-02-22 08:07:00,37.2,35.7,29.93,SSW,202,3.1,-999.0,94,-99.99,,,0.67,Acu-Link.com,2013-02-22 13:07:00,
2013-02-22 08:23:00,37.2,35.7,29.93,ESE,112,1.1,-999.0,94,-99.99,,,0.67,Acu-Link.com,2013-02-22 13:23:00,
2013-02-22 08:38:00,37.2,35.7,29.94,West,270,1.6,-999.0,94,-99.99,,,0.67,Acu-Link.com,2013-02-22 13:38:00,
2013-02-22 08:53:00,37.0,35.5,29.95,WNW,292,1.6,-999.0,94,-99.99,,,0.67,Acu-Link.com,2013-02-22 13:53:00,
2013-02-22 09:08:00,37.2,35.7,29.96,NE,45,1.6,-999.0,94,-99.99,,,0.67,Acu-Link.com,2013-02-22 14:08:00,
2013-02-22 09:23:00,37.4,35.6,29.95,WNW,292,2.7,-999.0,93,-99.99,,,0.67,Acu-Link.com,2013-02-22 14:23:00,
2013-02-22 09:39:00,37.8,36.2,29.94,SSW,202,2.2,-999.0,94,-99.99,,,0.67,Acu-Link.com,2013-02-22 14:39:00,
2013-02-22 09:54:00,38.3,36.2,29.94,SW,225,2.2,-999.0,92,-99.99,,,0.67,Acu-Link.com,2013-02-22 14:54:00,
2013-02-22 10:09:00,38.5,36.1,29.94,ESE,112,2.2,-999.0,91,-99.99,,,0.67,Acu-Link.com,2013-02-22 15:09:00,
2013-02-22 10:24:00,38.3,36.2,29.94,NNW,337,0.0,-999.0,92,-99.99,,,0.67,Acu-Link.com,2013-02-22 15:24:00,
2013-02-22 10:39:00,38.7,37.1,29.93,West,270,1.6,-999.0,94,-99.99,,,0.67,Acu-Link.com,2013-02-22 15:39:00,
2013-02-22 10:55:00,39.4,37.8,29.92,WSW,247,1.6,-999.0,94,-99.99,,,0.67,Acu-Link.com,2013-02-22 15:55:00,
2013-02-22 11:10:00,39.7,37.6,29.92,SW,225,0.0,-999.0,92,-99.99,,,0.67,Acu-Link.com,2013-02-22 16:10:00,
2013-02-22 11:25:00,40.3,38.4,29.93,South,180,1.6,-999.0,93,-99.99,,,0.67,Acu-Link.com,2013-02-22 16:25:00,
2013-02-22 11:40:00,40.5,38.3,29.93,SSW,202,2.2,-999.0,92,-99.99,,,0.67,Acu-Link.com,2013-02-22 16:40:00,
2013-02-22 11:56:00,40.8,39.0,29.93,WNW,292,3.1,-999.0,93,-99.99,,,0.67,Acu-Link.com,2013-02-22 16:56:00,
2013-02-22 12:11:00,41.5,39.4,29.93,SSW,202,2.2,-999.0,92,-99.99,,,0.67,Acu-Link.com,2013-02-22 17:11:00,
2013-02-22 12:26:00,42.1,39.6,29.92,South,180,2.2,-999.0,91,-99.99,,,0.67,Acu-Link.com,2013-02-22 17:26:00,
2013-02-22 12:41:00,42.3,39.8,29.93,SW,225,0.0,-999.0,91,-99.99,,,0.67,Acu-Link.com,2013-02-22 17:41:00,
2013-02-22 12:56:00,42.4,40.3,29.92,West,270,2.2,-999.0,92,-99.99,,,0.67,Acu-Link.com,2013-02-22 17:56:00,
2013-02-22 13:12:00,42.6,40.5,29.92,South,180,3.1,-999.0,92,-99.99,,,0.67,Acu-Link.com,2013-02-22 18:12:00,
2013-02-22 13:27:00,42.8,40.4,29.91,SSW,202,1.6,-999.0,91,-99.99,,,0.67,Acu-Link.com,2013-02-22 18:27:00,
2013-02-22 13:42:00,43.2,40.4,29.90,South,180,1.1,-999.0,90,-99.99,,,0.67,Acu-Link.com,2013-02-22 18:42:00,
2013-02-22 13:57:00,43.3,40.6,29.90,SSE,157,2.2,-999.0,90,-99.99,,,0.67,Acu-Link.com,2013-02-22 18:57:00,
2013-02-22 14:12:00,43.5,40.8,29.88,SSW,202,2.2,-999.0,90,-99.99,,,0.67,Acu-Link.com,2013-02-22 19:12:00,
2013-02-22 14:28:00,43.7,41.0,29.88,WSW,247,2.2,-999.0,90,-99.99,,,0.67,Acu-Link.com,2013-02-22 19:28:00,
2013-02-22 14:43:00,43.9,41.1,29.88,WSW,247,1.6,-999.0,90,-99.99,,,0.67,Acu-Link.com,2013-02-22 19:43:00,
2013-02-22 14:58:00,43.9,41.1,29.87,ENE,67,1.6,-999.0,90,-99.99,,,0.67,Acu-Link.com,2013-02-22 19:58:00,
2013-02-22 15:13:00,44.4,41.7,29.87,SE,135,0.0,-999.0,90,-99.99,,,0.67,Acu-Link.com,2013-02-22 20:13:00,
2013-02-22 15:28:00,44.4,41.4,29.86,ESE,112,0.0,-999.0,89,-99.99,,,0.67,Acu-Link.com,2013-02-22 20:28:00,
2013-02-22 15:44:00,44.6,41.9,29.86,West,270,2.2,-999.0,90,-99.99,,,0.67,Acu-Link.com,2013-02-22 20:44:00,
2013-02-22 15:59:00,44.8,42.0,29.86,SSW,202,0.0,-999.0,90,-99.99,,,0.67,Acu-Link.com,2013-02-22 20:59:00,
2013-02-22 16:14:00,45.0,42.2,29.86,West,270,1.6,-999.0,90,-99.99,,,0.67,Acu-Link.com,2013-02-22 21:14:00,
2013-02-22 16:29:00,45.1,42.4,29.85,WSW,247,0.0,-999.0,90,-99.99,,,0.67,Acu-Link.com,2013-02-22 21:29:00,
2013-02-22 16:45:00,45.1,42.4,29.85,West,270,0.0,-999.0,90,-99.99,,,0.67,Acu-Link.com,2013-02-22 21:45:00,
2013-02-22 17:00:00,45.0,42.5,29.84,SSE,157,0.0,-999.0,91,-99.99,,,0.67,Acu-Link.com,2013-02-22 22:00:00,
2013-02-22 17:15:00,45.0,42.8,29.84,SW,225,0.0,-999.0,92,-99.99,,,0.67,Acu-Link.com,2013-02-22 22:15:00,
2013-02-22 17:30:00,45.0,42.8,29.84,NE,45,0.0,-999.0,92,-99.99,,,0.67,Acu-Link.com,2013-02-22 22:30:00,
2013-02-22 17:45:00,44.8,42.6,29.84,SSW,202,0.0,-999.0,92,-99.99,,,0.67,Acu-Link.com,2013-02-22 22:45:00,
2013-02-22 18:01:00,44.8,42.9,29.84,East,90,0.0,-999.0,93,-99.99,,,0.67,Acu-Link.com,2013-02-22 23:01:00,
2013-02-22 18:16:00,44.4,42.8,29.84,South,180,1.6,-999.0,94,-99.99,,,0.67,Acu-Link.com,2013-02-22 23:16:00,
2013-02-22 18:31:00,44.2,42.6,29.84,West,270,0.0,-999.0,94,-99.99,,,0.67,Acu-Link.com,2013-02-22 23:31:00,
2013-02-22 18:46:00,44.1,42.7,29.85,WNW,292,0.0,-999.0,95,-99.99,,,0.67,Acu-Link.com,2013-02-22 23:46:00,
2013-02-22 19:01:00,43.9,42.8,29.85,ENE,67,0.0,-999.0,96,-99.99,,,0.67,Acu-Link.com,2013-02-23 00:01:00,
2013-02-22 19:17:00,43.7,42.4,29.85,North,0,0.0,-999.0,95,-99.99,,,0.67,Acu-Link.com,2013-02-23 00:17:00,
2013-02-22 19:32:00,43.3,42.0,29.86,ENE,67,0.0,-999.0,95,-99.99,,,0.67,Acu-Link.com,2013-02-23 00:32:00,
2013-02-22 19:47:00,43.3,42.0,29.86,NNE,22,0.0,-999.0,95,-99.99,,,0.67,Acu-Link.com,2013-02-23 00:47:00,
2013-02-22 20:02:00,43.3,42.0,29.87,NW,315,0.0,-999.0,95,-99.99,,,0.67,Acu-Link.com,2013-02-23 01:02:00,
2013-02-22 20:17:00,43.2,42.1,29.86,SE,135,0.0,-999.0,96,-99.99,,,0.67,Acu-Link.com,2013-02-23 01:17:00,
2013-02-22 20:33:00,43.2,42.1,29.86,West,270,0.0,-999.0,96,-99.99,,,0.67,Acu-Link.com,2013-02-23 01:33:00,
2013-02-22 20:48:00,43.2,42.4,29.86,NNW,337,1.6,-999.0,97,-99.99,,,0.67,Acu-Link.com,2013-02-23 01:48:00,
2013-02-22 21:03:00,43.2,42.6,29.84,East,90,0.0,-999.0,98,-99.99,,,0.67,Acu-Link.com,2013-02-23 02:03:00,
2013-02-22 21:18:00,43.2,42.6,29.82,WSW,247,1.6,-999.0,98,-99.99,,,0.67,Acu-Link.com,2013-02-23 02:18:00,
2013-02-22 21:33:00,43.2,42.6,29.81,NNW,337,0.0,-999.0,98,-99.99,,,0.67,Acu-Link.com,2013-02-23 02:33:00,
2013-02-22 21:49:00,43.2,42.6,29.83,NE,45,0.0,-999.0,98,-99.99,,,0.67,Acu-Link.com,2013-02-23 02:49:00,
2013-02-22 22:04:00,43.0,42.5,29.83,NNE,22,1.6,-999.0,98,-99.99,,,0.67,Acu-Link.com,2013-02-23 03:04:00,
2013-02-22 22:19:00,43.3,42.8,29.83,WNW,292,0.0,-999.0,98,-99.99,,,0.67,Acu-Link.com,2013-02-23 03:19:00,
2013-02-22 22:34:00,43.3,42.8,29.84,NW,315,1.6,-999.0,98,-99.99,,,0.67,Acu-Link.com,2013-02-23 03:34:00,
2013-02-22 22:50:00,43.3,42.8,63.55,West,270,2.7,-999.0,98,-99.99,,,0.67,Acu-Link.com,2013-02-23 03:50:00,
2013-02-22 23:05:00,43.2,42.6,29.85,NNE,22,2.7,-999.0,98,-99.99,,,0.67,Acu-Link.com,2013-02-23 04:05:00,
2013-02-22 23:20:00,44.4,44.2,29.85,NW,315,1.1,-999.0,99,-99.99,,,0.67,Acu-Link.com,2013-02-23 04:20:00,
2013-02-22 23:35:00,44.6,44.3,29.86,NW,315,0.0,-999.0,99,-99.99,,,0.69,Acu-Link.com,2013-02-23 04:35:00,
2013-02-22 23:50:00,44.2,44.0,29.84,West,270,0.0,-999.0,99,-99.99,,,0.71,Acu-Link.com,2013-02-23 04:50:00,